sensor_id;sensor_type;location;lat;lon;timestamp;P1;durP1;ratioP1;P2;durP2;ratioP2
24619;SDS011;12763;55.802;37.404;2022-09-16T00:00:19;38.92;;;22.25;;
24619;SDS011;12763;55.802;37.404;2022-09-16T00:02:45;36.08;;;20.67;;
24619;SDS011;12763;55.802;37.404;2022-09-16T00:05:12;31.80;;;17.15;;
24619;SDS011;12763;55.802;37.404;2022-09-16T00:07:38;38.22;;;19.15;;
24619;SDS011;12763;55.802;37.404;2022-09-16T00:10:04;28.25;;;15.48;;
24619;SDS011;12763;55.802;37.404;2022-09-16T00:12:31;28.33;;;15.65;;
24619;SDS011;12763;55.802;37.404;2022-09-16T00:14:57;28.67;;;13.50;;
24619;SDS011;12763;55.802;37.404;2022-09-16T00:17:23;28.25;;;13.23;;
24619;SDS011;12763;55.802;37.404;2022-09-16T00:19:49;29.70;;;12.65;;
24619;SDS011;12763;55.802;37.404;2022-09-16T00:22:15;28.02;;;12.60;;
24619;SDS011;12763;55.802;37.404;2022-09-16T00:24:42;26.40;;;12.70;;
24619;SDS011;12763;55.802;37.404;2022-09-16T00:27:08;27.10;;;13.13;;
24619;SDS011;12763;55.802;37.404;2022-09-16T00:29:35;22.02;;;12.00;;
24619;SDS011;12763;55.802;37.404;2022-09-16T00:32:01;21.58;;;11.88;;
24619;SDS011;12763;55.802;37.404;2022-09-16T00:34:27;25.40;;;12.07;;
24619;SDS011;12763;55.802;37.404;2022-09-16T00:36:53;21.75;;;12.35;;
24619;SDS011;12763;55.802;37.404;2022-09-16T00:39:19;20.20;;;11.52;;
24619;SDS011;12763;55.802;37.404;2022-09-16T00:41:45;22.50;;;11.40;;
24619;SDS011;12763;55.802;37.404;2022-09-16T00:47:16;21.70;;;10.38;;
24619;SDS011;12763;55.802;37.404;2022-09-16T00:49:46;18.95;;;10.82;;
24619;SDS011;12763;55.802;37.404;2022-09-16T00:52:13;19.60;;;10.50;;
24619;SDS011;12763;55.802;37.404;2022-09-16T00:54:40;25.88;;;10.45;;
24619;SDS011;12763;55.802;37.404;2022-09-16T00:57:08;20.75;;;10.85;;
24619;SDS011;12763;55.802;37.404;2022-09-16T00:59:36;18.88;;;10.88;;
24619;SDS011;12763;55.802;37.404;2022-09-16T01:02:07;20.35;;;11.63;;
24619;SDS011;12763;55.802;37.404;2022-09-16T01:04:37;20.90;;;10.40;;
24619;SDS011;12763;55.802;37.404;2022-09-16T01:07:11;24.30;;;13.38;;
24619;SDS011;12763;55.802;37.404;2022-09-16T01:09:38;28.95;;;15.40;;
24619;SDS011;12763;55.802;37.404;2022-09-16T01:12:04;35.08;;;15.35;;
24619;SDS011;12763;55.802;37.404;2022-09-16T01:14:30;29.17;;;14.38;;
24619;SDS011;12763;55.802;37.404;2022-09-16T01:36:58;19.65;;;11.18;;
24619;SDS011;12763;55.802;37.404;2022-09-16T01:39:40;21.88;;;11.95;;
24619;SDS011;12763;55.802;37.404;2022-09-16T01:42:45;22.05;;;11.93;;
24619;SDS011;12763;55.802;37.404;2022-09-16T01:45:16;27.23;;;12.45;;
24619;SDS011;12763;55.802;37.404;2022-09-16T01:50:44;21.90;;;11.73;;
24619;SDS011;12763;55.802;37.404;2022-09-16T01:53:26;23.45;;;11.82;;
24619;SDS011;12763;55.802;37.404;2022-09-16T01:59:07;27.50;;;12.40;;
24619;SDS011;12763;55.802;37.404;2022-09-16T02:01:36;17.85;;;11.48;;
24619;SDS011;12763;55.802;37.404;2022-09-16T02:04:22;20.48;;;10.63;;
24619;SDS011;12763;55.802;37.404;2022-09-16T02:06:51;35.33;;;11.70;;
24619;SDS011;12763;55.802;37.404;2022-09-16T02:09:38;20.75;;;11.68;;
24619;SDS011;12763;55.802;37.404;2022-09-16T02:12:09;23.42;;;11.30;;
24619;SDS011;12763;55.802;37.404;2022-09-16T02:14:41;19.42;;;10.93;;
24619;SDS011;12763;55.802;37.404;2022-09-16T02:17:10;21.45;;;10.90;;
24619;SDS011;12763;55.802;37.404;2022-09-16T02:19:51;19.52;;;11.25;;
24619;SDS011;12763;55.802;37.404;2022-09-16T02:22:33;23.77;;;10.50;;
24619;SDS011;12763;55.802;37.404;2022-09-16T02:25:04;23.05;;;12.55;;
24619;SDS011;12763;55.802;37.404;2022-09-16T02:27:32;24.42;;;11.38;;
24619;SDS011;12763;55.802;37.404;2022-09-16T02:30:02;19.23;;;10.50;;
24619;SDS011;12763;55.802;37.404;2022-09-16T02:32:31;22.63;;;11.93;;
24619;SDS011;12763;55.802;37.404;2022-09-16T02:35:01;18.40;;;10.40;;
24619;SDS011;12763;55.802;37.404;2022-09-16T02:37:29;25.40;;;12.10;;
24619;SDS011;12763;55.802;37.404;2022-09-16T02:40:11;21.15;;;11.35;;
24619;SDS011;12763;55.802;37.404;2022-09-16T02:42:41;22.08;;;12.85;;
24619;SDS011;12763;55.802;37.404;2022-09-16T02:45:07;24.17;;;10.73;;
24619;SDS011;12763;55.802;37.404;2022-09-16T02:52:50;23.55;;;11.10;;
24619;SDS011;12763;55.802;37.404;2022-09-16T02:58:13;21.92;;;10.77;;
24619;SDS011;12763;55.802;37.404;2022-09-16T03:00:44;23.70;;;11.07;;
24619;SDS011;12763;55.802;37.404;2022-09-16T03:03:12;24.27;;;12.43;;
24619;SDS011;12763;55.802;37.404;2022-09-16T03:06:05;25.50;;;11.93;;
24619;SDS011;12763;55.802;37.404;2022-09-16T03:08:28;23.60;;;11.20;;
24619;SDS011;12763;55.802;37.404;2022-09-16T03:10:54;24.48;;;10.90;;
24619;SDS011;12763;55.802;37.404;2022-09-16T03:13:31;21.08;;;11.48;;
24619;SDS011;12763;55.802;37.404;2022-09-16T03:16:26;20.67;;;11.85;;
24619;SDS011;12763;55.802;37.404;2022-09-16T03:28:04;23.05;;;12.00;;
24619;SDS011;12763;55.802;37.404;2022-09-16T03:30:37;24.00;;;12.50;;
24619;SDS011;12763;55.802;37.404;2022-09-16T03:33:17;22.92;;;12.20;;
24619;SDS011;12763;55.802;37.404;2022-09-16T03:35:51;24.65;;;12.45;;
24619;SDS011;12763;55.802;37.404;2022-09-16T03:38:21;18.60;;;10.90;;
24619;SDS011;12763;55.802;37.404;2022-09-16T03:40:48;18.38;;;11.07;;
24619;SDS011;12763;55.802;37.404;2022-09-16T03:43:15;21.40;;;11.25;;
24619;SDS011;12763;55.802;37.404;2022-09-16T03:45:42;20.80;;;12.63;;
24619;SDS011;12763;55.802;37.404;2022-09-16T03:48:09;23.63;;;11.57;;
24619;SDS011;12763;55.802;37.404;2022-09-16T03:50:36;27.27;;;13.00;;
24619;SDS011;12763;55.802;37.404;2022-09-16T03:53:03;18.08;;;10.88;;
24619;SDS011;12763;55.802;37.404;2022-09-16T03:55:29;22.55;;;11.48;;
24619;SDS011;12763;55.802;37.404;2022-09-16T03:57:55;23.05;;;11.45;;
24619;SDS011;12763;55.802;37.404;2022-09-16T04:00:21;17.00;;;11.15;;
24619;SDS011;12763;55.802;37.404;2022-09-16T04:02:47;20.42;;;12.20;;
24619;SDS011;12763;55.802;37.404;2022-09-16T04:05:13;25.70;;;11.77;;
24619;SDS011;12763;55.802;37.404;2022-09-16T04:07:39;18.40;;;10.70;;
24619;SDS011;12763;55.802;37.404;2022-09-16T04:10:06;18.50;;;11.45;;
24619;SDS011;12763;55.802;37.404;2022-09-16T04:12:32;20.92;;;11.18;;
24619;SDS011;12763;55.802;37.404;2022-09-16T04:14:58;22.23;;;12.48;;
24619;SDS011;12763;55.802;37.404;2022-09-16T04:17:24;22.02;;;11.82;;
24619;SDS011;12763;55.802;37.404;2022-09-16T04:19:50;23.27;;;11.25;;
24619;SDS011;12763;55.802;37.404;2022-09-16T04:22:17;17.25;;;10.85;;
24619;SDS011;12763;55.802;37.404;2022-09-16T04:24:43;20.00;;;11.38;;
24619;SDS011;12763;55.802;37.404;2022-09-16T04:27:09;21.45;;;12.00;;
24619;SDS011;12763;55.802;37.404;2022-09-16T04:29:35;20.98;;;11.07;;
24619;SDS011;12763;55.802;37.404;2022-09-16T04:32:01;21.67;;;11.98;;
24619;SDS011;12763;55.802;37.404;2022-09-16T04:34:27;20.02;;;10.13;;
24619;SDS011;12763;55.802;37.404;2022-09-16T04:36:53;22.42;;;12.10;;
24619;SDS011;12763;55.802;37.404;2022-09-16T04:39:19;18.67;;;10.93;;
24619;SDS011;12763;55.802;37.404;2022-09-16T04:41:44;21.73;;;11.57;;
24619;SDS011;12763;55.802;37.404;2022-09-16T04:44:10;20.40;;;11.75;;
24619;SDS011;12763;55.802;37.404;2022-09-16T04:46:36;25.92;;;12.43;;
24619;SDS011;12763;55.802;37.404;2022-09-16T04:49:02;21.70;;;11.88;;
24619;SDS011;12763;55.802;37.404;2022-09-16T04:51:28;21.52;;;13.13;;
24619;SDS011;12763;55.802;37.404;2022-09-16T04:53:56;20.80;;;12.02;;
24619;SDS011;12763;55.802;37.404;2022-09-16T04:56:24;20.60;;;11.85;;
24619;SDS011;12763;55.802;37.404;2022-09-16T04:58:52;19.05;;;10.77;;
24619;SDS011;12763;55.802;37.404;2022-09-16T05:01:21;22.92;;;12.65;;
24619;SDS011;12763;55.802;37.404;2022-09-16T05:03:55;20.65;;;11.25;;
24619;SDS011;12763;55.802;37.404;2022-09-16T05:06:26;20.42;;;12.13;;
24619;SDS011;12763;55.802;37.404;2022-09-16T05:08:55;20.02;;;11.93;;
24619;SDS011;12763;55.802;37.404;2022-09-16T05:11:22;17.85;;;10.95;;
24619;SDS011;12763;55.802;37.404;2022-09-16T05:13:50;32.75;;;11.90;;
24619;SDS011;12763;55.802;37.404;2022-09-16T05:16:18;23.92;;;12.23;;
24619;SDS011;12763;55.802;37.404;2022-09-16T05:18:46;19.88;;;11.35;;
24619;SDS011;12763;55.802;37.404;2022-09-16T05:21:14;27.13;;;11.80;;
24619;SDS011;12763;55.802;37.404;2022-09-16T05:23:42;19.17;;;11.50;;
24619;SDS011;12763;55.802;37.404;2022-09-16T05:26:11;21.13;;;11.68;;
24619;SDS011;12763;55.802;37.404;2022-09-16T05:28:39;20.63;;;10.90;;
24619;SDS011;12763;55.802;37.404;2022-09-16T05:31:12;17.90;;;10.90;;
24619;SDS011;12763;55.802;37.404;2022-09-16T05:33:40;20.38;;;11.45;;
24619;SDS011;12763;55.802;37.404;2022-09-16T05:36:09;21.55;;;11.43;;
24619;SDS011;12763;55.802;37.404;2022-09-16T05:38:37;17.20;;;11.00;;
24619;SDS011;12763;55.802;37.404;2022-09-16T05:41:03;18.77;;;11.13;;
24619;SDS011;12763;55.802;37.404;2022-09-16T05:43:30;20.15;;;10.98;;
24619;SDS011;12763;55.802;37.404;2022-09-16T05:45:56;17.98;;;11.80;;
24619;SDS011;12763;55.802;37.404;2022-09-16T05:48:22;20.08;;;11.75;;
24619;SDS011;12763;55.802;37.404;2022-09-16T05:50:52;20.05;;;12.20;;
24619;SDS011;12763;55.802;37.404;2022-09-16T05:53:23;19.15;;;11.75;;
24619;SDS011;12763;55.802;37.404;2022-09-16T05:55:57;22.75;;;11.15;;
24619;SDS011;12763;55.802;37.404;2022-09-16T05:58:26;24.58;;;12.70;;
24619;SDS011;12763;55.802;37.404;2022-09-16T06:00:57;21.52;;;13.73;;
24619;SDS011;12763;55.802;37.404;2022-09-16T06:03:27;19.55;;;12.23;;
24619;SDS011;12763;55.802;37.404;2022-09-16T06:06:00;28.05;;;12.25;;
24619;SDS011;12763;55.802;37.404;2022-09-16T06:08:29;20.92;;;12.65;;
24619;SDS011;12763;55.802;37.404;2022-09-16T06:10:59;23.70;;;13.45;;
24619;SDS011;12763;55.802;37.404;2022-09-16T06:13:26;23.30;;;12.45;;
24619;SDS011;12763;55.802;37.404;2022-09-16T06:15:52;25.45;;;13.07;;
24619;SDS011;12763;55.802;37.404;2022-09-16T06:18:24;22.52;;;11.75;;
24619;SDS011;12763;55.802;37.404;2022-09-16T06:20:53;22.70;;;12.63;;
24619;SDS011;12763;55.802;37.404;2022-09-16T06:23:19;19.13;;;12.43;;
24619;SDS011;12763;55.802;37.404;2022-09-16T06:25:47;20.10;;;12.40;;
24619;SDS011;12763;55.802;37.404;2022-09-16T06:28:13;24.95;;;12.40;;
24619;SDS011;12763;55.802;37.404;2022-09-16T06:30:40;21.83;;;12.52;;
24619;SDS011;12763;55.802;37.404;2022-09-16T06:33:06;22.77;;;12.10;;
24619;SDS011;12763;55.802;37.404;2022-09-16T06:35:34;21.13;;;12.68;;
24619;SDS011;12763;55.802;37.404;2022-09-16T06:38:00;30.58;;;12.35;;
24619;SDS011;12763;55.802;37.404;2022-09-16T06:40:26;22.95;;;12.25;;
24619;SDS011;12763;55.802;37.404;2022-09-16T06:42:53;24.98;;;12.23;;
24619;SDS011;12763;55.802;37.404;2022-09-16T06:45:22;22.58;;;12.05;;
24619;SDS011;12763;55.802;37.404;2022-09-16T06:47:48;32.10;;;11.90;;
24619;SDS011;12763;55.802;37.404;2022-09-16T06:50:17;19.35;;;11.70;;
24619;SDS011;12763;55.802;37.404;2022-09-16T06:52:42;24.05;;;12.65;;
24619;SDS011;12763;55.802;37.404;2022-09-16T06:55:09;19.60;;;11.77;;
24619;SDS011;12763;55.802;37.404;2022-09-16T06:57:35;20.98;;;11.68;;
24619;SDS011;12763;55.802;37.404;2022-09-16T07:00:02;20.42;;;11.57;;
24619;SDS011;12763;55.802;37.404;2022-09-16T07:02:29;23.23;;;12.38;;
24619;SDS011;12763;55.802;37.404;2022-09-16T07:04:55;19.90;;;10.90;;
24619;SDS011;12763;55.802;37.404;2022-09-16T07:07:21;24.25;;;12.07;;
24619;SDS011;12763;55.802;37.404;2022-09-16T07:09:47;23.25;;;11.20;;
24619;SDS011;12763;55.802;37.404;2022-09-16T07:12:13;20.40;;;10.52;;
24619;SDS011;12763;55.802;37.404;2022-09-16T07:14:39;25.42;;;11.98;;
24619;SDS011;12763;55.802;37.404;2022-09-16T07:17:05;24.92;;;12.45;;
24619;SDS011;12763;55.802;37.404;2022-09-16T07:19:33;20.42;;;11.90;;
24619;SDS011;12763;55.802;37.404;2022-09-16T07:21:59;27.48;;;13.02;;
24619;SDS011;12763;55.802;37.404;2022-09-16T07:24:25;17.15;;;11.25;;
24619;SDS011;12763;55.802;37.404;2022-09-16T07:26:51;24.77;;;11.95;;
24619;SDS011;12763;55.802;37.404;2022-09-16T07:29:17;24.50;;;12.75;;
24619;SDS011;12763;55.802;37.404;2022-09-16T07:31:45;24.08;;;12.00;;
24619;SDS011;12763;55.802;37.404;2022-09-16T07:34:11;22.05;;;11.88;;
24619;SDS011;12763;55.802;37.404;2022-09-16T07:36:42;21.75;;;12.57;;
24619;SDS011;12763;55.802;37.404;2022-09-16T07:39:11;23.98;;;12.82;;
24619;SDS011;12763;55.802;37.404;2022-09-16T07:41:39;32.65;;;13.63;;
24619;SDS011;12763;55.802;37.404;2022-09-16T07:44:13;18.33;;;11.80;;
24619;SDS011;12763;55.802;37.404;2022-09-16T07:46:41;27.00;;;13.38;;
24619;SDS011;12763;55.802;37.404;2022-09-16T07:49:07;23.08;;;12.88;;
24619;SDS011;12763;55.802;37.404;2022-09-16T07:51:36;20.60;;;12.48;;
24619;SDS011;12763;55.802;37.404;2022-09-16T07:54:03;20.30;;;12.93;;
24619;SDS011;12763;55.802;37.404;2022-09-16T07:56:32;24.25;;;14.07;;
24619;SDS011;12763;55.802;37.404;2022-09-16T07:59:00;23.88;;;13.02;;
24619;SDS011;12763;55.802;37.404;2022-09-16T08:01:27;31.70;;;12.63;;
24619;SDS011;12763;55.802;37.404;2022-09-16T08:03:55;21.33;;;12.85;;
24619;SDS011;12763;55.802;37.404;2022-09-16T08:06:22;26.13;;;13.60;;
24619;SDS011;12763;55.802;37.404;2022-09-16T08:08:51;24.67;;;13.32;;
24619;SDS011;12763;55.802;37.404;2022-09-16T08:11:19;19.92;;;12.02;;
24619;SDS011;12763;55.802;37.404;2022-09-16T08:13:45;19.73;;;12.55;;
24619;SDS011;12763;55.802;37.404;2022-09-16T08:16:19;26.88;;;12.95;;
24619;SDS011;12763;55.802;37.404;2022-09-16T08:18:48;29.98;;;13.00;;
24619;SDS011;12763;55.802;37.404;2022-09-16T08:21:16;33.47;;;13.30;;
24619;SDS011;12763;55.802;37.404;2022-09-16T08:23:44;21.92;;;13.45;;
24619;SDS011;12763;55.802;37.404;2022-09-16T08:26:10;24.17;;;12.80;;
24619;SDS011;12763;55.802;37.404;2022-09-16T08:28:39;19.48;;;12.38;;
24619;SDS011;12763;55.802;37.404;2022-09-16T08:31:07;20.15;;;12.20;;
24619;SDS011;12763;55.802;37.404;2022-09-16T08:33:34;22.85;;;12.70;;
24619;SDS011;12763;55.802;37.404;2022-09-16T08:36:00;24.92;;;11.55;;
24619;SDS011;12763;55.802;37.404;2022-09-16T08:38:29;18.92;;;11.57;;
24619;SDS011;12763;55.802;37.404;2022-09-16T08:42:00;18.95;;;11.25;;
24619;SDS011;12763;55.802;37.404;2022-09-16T08:44:11;19.77;;;11.95;;
24619;SDS011;12763;55.802;37.404;2022-09-16T08:49:41;19.67;;;10.63;;
24619;SDS011;12763;55.802;37.404;2022-09-16T08:57:53;19.88;;;10.38;;
24619;SDS011;12763;55.802;37.404;2022-09-16T09:00:22;20.67;;;10.02;;
24619;SDS011;12763;55.802;37.404;2022-09-16T09:05:35;21.33;;;9.23;;
24619;SDS011;12763;55.802;37.404;2022-09-16T09:10:50;16.33;;;8.55;;
24619;SDS011;12763;55.802;37.404;2022-09-16T09:27:05;15.68;;;8.68;;
24619;SDS011;12763;55.802;37.404;2022-09-16T09:32:13;18.67;;;8.80;;
24619;SDS011;12763;55.802;37.404;2022-09-16T09:45:43;11.38;;;8.43;;
24619;SDS011;12763;55.802;37.404;2022-09-16T09:48:22;14.38;;;9.70;;
24619;SDS011;12763;55.802;37.404;2022-09-16T09:50:51;16.70;;;9.68;;
24619;SDS011;12763;55.802;37.404;2022-09-16T09:53:25;13.50;;;9.07;;
24619;SDS011;12763;55.802;37.404;2022-09-16T09:56:41;14.60;;;9.48;;
24619;SDS011;12763;55.802;37.404;2022-09-16T10:01:41;16.80;;;8.63;;
24619;SDS011;12763;55.802;37.404;2022-09-16T10:04:14;14.98;;;8.57;;
24619;SDS011;12763;55.802;37.404;2022-09-16T10:06:40;16.13;;;8.95;;
24619;SDS011;12763;55.802;37.404;2022-09-16T10:09:07;15.68;;;9.55;;
24619;SDS011;12763;55.802;37.404;2022-09-16T10:11:45;15.63;;;9.02;;
24619;SDS011;12763;55.802;37.404;2022-09-16T10:14:21;13.52;;;8.52;;
24619;SDS011;12763;55.802;37.404;2022-09-16T10:16:59;17.13;;;8.82;;
24619;SDS011;12763;55.802;37.404;2022-09-16T10:19:27;13.65;;;8.77;;
24619;SDS011;12763;55.802;37.404;2022-09-16T10:22:51;17.00;;;9.45;;
24619;SDS011;12763;55.802;37.404;2022-09-16T10:24:59;24.02;;;11.63;;
24619;SDS011;12763;55.802;37.404;2022-09-16T10:27:53;15.07;;;8.55;;
24619;SDS011;12763;55.802;37.404;2022-09-16T10:30:26;12.32;;;8.05;;
24619;SDS011;12763;55.802;37.404;2022-09-16T10:33:27;14.50;;;9.45;;
24619;SDS011;12763;55.802;37.404;2022-09-16T10:35:55;15.00;;;8.88;;
24619;SDS011;12763;55.802;37.404;2022-09-16T10:38:40;15.32;;;8.05;;
24619;SDS011;12763;55.802;37.404;2022-09-16T10:41:14;9.98;;;7.35;;
24619;SDS011;12763;55.802;37.404;2022-09-16T10:43:49;16.88;;;7.63;;
24619;SDS011;12763;55.802;37.404;2022-09-16T10:46:17;15.73;;;8.63;;
24619;SDS011;12763;55.802;37.404;2022-09-16T10:48:44;16.80;;;8.65;;
24619;SDS011;12763;55.802;37.404;2022-09-16T10:51:28;13.82;;;8.63;;
24619;SDS011;12763;55.802;37.404;2022-09-16T10:53:57;13.75;;;7.68;;
24619;SDS011;12763;55.802;37.404;2022-09-16T10:56:31;12.40;;;7.63;;
24619;SDS011;12763;55.802;37.404;2022-09-16T10:59:07;12.05;;;6.97;;
24619;SDS011;12763;55.802;37.404;2022-09-16T11:07:02;11.45;;;8.13;;
24619;SDS011;12763;55.802;37.404;2022-09-16T11:12:14;12.63;;;6.78;;
24619;SDS011;12763;55.802;37.404;2022-09-16T11:22:55;21.03;;;8.67;;
24619;SDS011;12763;55.802;37.404;2022-09-16T11:25:55;10.90;;;7.00;;
24619;SDS011;12763;55.802;37.404;2022-09-16T11:28:42;20.27;;;7.72;;
24619;SDS011;12763;55.802;37.404;2022-09-16T11:31:22;12.90;;;8.48;;
24619;SDS011;12763;55.802;37.404;2022-09-16T11:44:40;14.05;;;8.20;;
24619;SDS011;12763;55.802;37.404;2022-09-16T11:47:45;12.27;;;8.93;;
24619;SDS011;12763;55.802;37.404;2022-09-16T11:50:27;16.80;;;9.05;;
24619;SDS011;12763;55.802;37.404;2022-09-16T12:01:30;17.35;;;8.55;;
24619;SDS011;12763;55.802;37.404;2022-09-16T12:04:03;11.02;;;7.53;;
24619;SDS011;12763;55.802;37.404;2022-09-16T12:06:51;12.30;;;7.85;;
24619;SDS011;12763;55.802;37.404;2022-09-16T12:12:20;14.02;;;8.05;;
24619;SDS011;12763;55.802;37.404;2022-09-16T12:14:53;13.90;;;7.57;;
24619;SDS011;12763;55.802;37.404;2022-09-16T12:17:39;14.88;;;6.82;;
24619;SDS011;12763;55.802;37.404;2022-09-16T12:22:47;14.48;;;9.25;;
24619;SDS011;12763;55.802;37.404;2022-09-16T12:27:48;10.32;;;6.47;;
24619;SDS011;12763;55.802;37.404;2022-09-16T12:30:20;13.15;;;6.72;;
24619;SDS011;12763;55.802;37.404;2022-09-16T12:52:10;16.27;;;7.75;;
24619;SDS011;12763;55.802;37.404;2022-09-16T13:00:23;16.60;;;9.13;;
24619;SDS011;12763;55.802;37.404;2022-09-16T13:03:16;18.98;;;8.77;;
24619;SDS011;12763;55.802;37.404;2022-09-16T13:05:47;16.58;;;8.98;;
24619;SDS011;12763;55.802;37.404;2022-09-16T13:08:26;19.90;;;8.93;;
24619;SDS011;12763;55.802;37.404;2022-09-16T13:11:05;19.73;;;10.10;;
24619;SDS011;12763;55.802;37.404;2022-09-16T13:13:42;18.73;;;9.95;;
24619;SDS011;12763;55.802;37.404;2022-09-16T13:16:12;15.85;;;9.68;;
24619;SDS011;12763;55.802;37.404;2022-09-16T13:24:02;18.48;;;10.35;;
24619;SDS011;12763;55.802;37.404;2022-09-16T13:26:41;17.67;;;10.20;;
24619;SDS011;12763;55.802;37.404;2022-09-16T13:29:30;24.60;;;10.02;;
24619;SDS011;12763;55.802;37.404;2022-09-16T13:32:27;20.60;;;10.88;;
24619;SDS011;12763;55.802;37.404;2022-09-16T13:35:04;18.60;;;10.20;;
24619;SDS011;12763;55.802;37.404;2022-09-16T13:37:49;16.80;;;9.85;;
24619;SDS011;12763;55.802;37.404;2022-09-16T13:42:46;17.25;;;10.68;;
24619;SDS011;12763;55.802;37.404;2022-09-16T13:45:32;21.23;;;11.88;;
24619;SDS011;12763;55.802;37.404;2022-09-16T13:48:04;21.95;;;12.15;;
24619;SDS011;12763;55.802;37.404;2022-09-16T13:50:56;18.52;;;11.80;;
24619;SDS011;12763;55.802;37.404;2022-09-16T13:53:28;23.77;;;12.40;;
24619;SDS011;12763;55.802;37.404;2022-09-16T13:55:59;23.70;;;13.13;;
24619;SDS011;12763;55.802;37.404;2022-09-16T14:01:36;23.30;;;12.45;;
24619;SDS011;12763;55.802;37.404;2022-09-16T14:14:49;20.20;;;11.45;;
24619;SDS011;12763;55.802;37.404;2022-09-16T14:17:19;19.25;;;11.63;;
24619;SDS011;12763;55.802;37.404;2022-09-16T14:19:51;22.75;;;12.20;;
24619;SDS011;12763;55.802;37.404;2022-09-16T14:22:22;27.10;;;12.52;;
24619;SDS011;12763;55.802;37.404;2022-09-16T14:24:51;23.52;;;12.65;;
24619;SDS011;12763;55.802;37.404;2022-09-16T14:27:28;23.60;;;12.45;;
24619;SDS011;12763;55.802;37.404;2022-09-16T14:29:59;22.95;;;13.35;;
24619;SDS011;12763;55.802;37.404;2022-09-16T14:32:30;25.80;;;14.52;;
24619;SDS011;12763;55.802;37.404;2022-09-16T14:35:02;20.92;;;13.70;;
24619;SDS011;12763;55.802;37.404;2022-09-16T14:37:34;21.50;;;11.65;;
24619;SDS011;12763;55.802;37.404;2022-09-16T14:40:05;20.65;;;12.68;;
24619;SDS011;12763;55.802;37.404;2022-09-16T14:42:38;13.30;;;8.80;;
24619;SDS011;12763;55.802;37.404;2022-09-16T14:45:29;16.65;;;9.43;;
24619;SDS011;12763;55.802;37.404;2022-09-16T14:47:59;19.63;;;9.73;;
24619;SDS011;12763;55.802;37.404;2022-09-16T14:50:27;21.10;;;10.65;;
24619;SDS011;12763;55.802;37.404;2022-09-16T14:53:01;16.00;;;9.70;;
24619;SDS011;12763;55.802;37.404;2022-09-16T14:55:30;13.70;;;8.15;;
24619;SDS011;12763;55.802;37.404;2022-09-16T14:58:00;15.50;;;7.95;;
24619;SDS011;12763;55.802;37.404;2022-09-16T15:00:33;15.20;;;8.38;;
24619;SDS011;12763;55.802;37.404;2022-09-16T15:03:11;19.45;;;9.40;;
24619;SDS011;12763;55.802;37.404;2022-09-16T15:05:44;12.57;;;8.23;;
24619;SDS011;12763;55.802;37.404;2022-09-16T15:11:01;18.80;;;9.75;;
24619;SDS011;12763;55.802;37.404;2022-09-16T15:13:36;14.98;;;8.20;;
24619;SDS011;12763;55.802;37.404;2022-09-16T15:16:08;18.00;;;9.82;;
24619;SDS011;12763;55.802;37.404;2022-09-16T15:18:51;14.88;;;9.02;;
24619;SDS011;12763;55.802;37.404;2022-09-16T15:21:29;17.20;;;9.38;;
24619;SDS011;12763;55.802;37.404;2022-09-16T15:23:57;19.88;;;9.05;;
24619;SDS011;12763;55.802;37.404;2022-09-16T15:26:29;14.80;;;9.30;;
24619;SDS011;12763;55.802;37.404;2022-09-16T15:40:07;18.73;;;11.15;;
24619;SDS011;12763;55.802;37.404;2022-09-16T15:42:48;22.13;;;12.05;;
24619;SDS011;12763;55.802;37.404;2022-09-16T15:46:22;22.55;;;12.25;;
24619;SDS011;12763;55.802;37.404;2022-09-16T15:48:55;20.42;;;11.35;;
24619;SDS011;12763;55.802;37.404;2022-09-16T15:59:22;19.33;;;12.13;;
24619;SDS011;12763;55.802;37.404;2022-09-16T16:01:59;19.02;;;11.73;;
24619;SDS011;12763;55.802;37.404;2022-09-16T16:04:34;16.17;;;10.40;;
24619;SDS011;12763;55.802;37.404;2022-09-16T16:07:01;15.70;;;10.80;;
24619;SDS011;12763;55.802;37.404;2022-09-16T16:14:36;18.25;;;10.35;;
24619;SDS011;12763;55.802;37.404;2022-09-16T16:17:08;17.30;;;11.13;;
24619;SDS011;12763;55.802;37.404;2022-09-16T16:19:39;15.80;;;10.23;;
24619;SDS011;12763;55.802;37.404;2022-09-16T16:22:07;20.80;;;10.90;;
24619;SDS011;12763;55.802;37.404;2022-09-16T16:24:33;17.52;;;10.27;;
24619;SDS011;12763;55.802;37.404;2022-09-16T16:26:59;20.60;;;10.65;;
24619;SDS011;12763;55.802;37.404;2022-09-16T16:29:25;19.38;;;10.35;;
24619;SDS011;12763;55.802;37.404;2022-09-16T16:34:26;18.08;;;10.55;;
24619;SDS011;12763;55.802;37.404;2022-09-16T16:36:53;17.95;;;10.77;;
24619;SDS011;12763;55.802;37.404;2022-09-16T16:39:19;15.50;;;10.60;;
24619;SDS011;12763;55.802;37.404;2022-09-16T16:41:47;19.58;;;10.95;;
24619;SDS011;12763;55.802;37.404;2022-09-16T16:44:13;17.70;;;12.00;;
24619;SDS011;12763;55.802;37.404;2022-09-16T16:46:39;16.38;;;10.55;;
24619;SDS011;12763;55.802;37.404;2022-09-16T16:49:06;20.17;;;11.20;;
24619;SDS011;12763;55.802;37.404;2022-09-16T16:51:32;17.40;;;11.15;;
24619;SDS011;12763;55.802;37.404;2022-09-16T16:53:58;22.23;;;11.88;;
24619;SDS011;12763;55.802;37.404;2022-09-16T16:56:25;20.13;;;12.77;;
24619;SDS011;12763;55.802;37.404;2022-09-16T16:58:51;17.23;;;11.63;;
24619;SDS011;12763;55.802;37.404;2022-09-16T17:01:19;20.88;;;12.27;;
24619;SDS011;12763;55.802;37.404;2022-09-16T17:03:46;20.55;;;12.20;;
24619;SDS011;12763;55.802;37.404;2022-09-16T17:06:16;17.50;;;11.73;;
24619;SDS011;12763;55.802;37.404;2022-09-16T17:08:43;18.75;;;11.23;;
24619;SDS011;12763;55.802;37.404;2022-09-16T17:11:16;16.92;;;9.90;;
24619;SDS011;12763;55.802;37.404;2022-09-16T17:13:48;20.08;;;11.93;;
24619;SDS011;12763;55.802;37.404;2022-09-16T17:16:19;17.63;;;11.57;;
24619;SDS011;12763;55.802;37.404;2022-09-16T17:18:50;18.17;;;12.30;;
24619;SDS011;12763;55.802;37.404;2022-09-16T17:21:17;18.42;;;11.48;;
24619;SDS011;12763;55.802;37.404;2022-09-16T17:23:53;19.85;;;12.05;;
24619;SDS011;12763;55.802;37.404;2022-09-16T17:26:20;17.65;;;11.80;;
24619;SDS011;12763;55.802;37.404;2022-09-16T17:28:47;19.20;;;11.52;;
24619;SDS011;12763;55.802;37.404;2022-09-16T17:31:16;18.65;;;11.90;;
24619;SDS011;12763;55.802;37.404;2022-09-16T17:33:54;21.92;;;12.52;;
24619;SDS011;12763;55.802;37.404;2022-09-16T17:36:22;20.15;;;12.60;;
24619;SDS011;12763;55.802;37.404;2022-09-16T17:38:59;20.60;;;12.32;;
24619;SDS011;12763;55.802;37.404;2022-09-16T17:41:27;17.77;;;11.55;;
24619;SDS011;12763;55.802;37.404;2022-09-16T17:43:54;19.02;;;12.15;;
24619;SDS011;12763;55.802;37.404;2022-09-16T17:46:21;17.80;;;12.43;;
24619;SDS011;12763;55.802;37.404;2022-09-16T17:48:49;14.75;;;10.25;;
24619;SDS011;12763;55.802;37.404;2022-09-16T17:51:16;16.25;;;11.48;;
24619;SDS011;12763;55.802;37.404;2022-09-16T17:53:42;16.48;;;11.35;;
24619;SDS011;12763;55.802;37.404;2022-09-16T17:56:10;19.13;;;11.30;;
24619;SDS011;12763;55.802;37.404;2022-09-16T17:58:38;18.25;;;12.02;;
24619;SDS011;12763;55.802;37.404;2022-09-16T18:03:33;20.00;;;12.43;;
24619;SDS011;12763;55.802;37.404;2022-09-16T18:06:10;16.48;;;9.95;;